createdAt,value
2019-02-18T00:04:17.096Z,-0.20
2019-02-18T00:09:12.971Z,-0.30
2019-02-18T00:14:08.952Z,-0.50
2019-02-18T00:19:04.891Z,-0.50
2019-02-18T00:24:00.808Z,-0.60
2019-02-18T00:28:56.753Z,-0.80
2019-02-18T00:33:52.688Z,-0.90
2019-02-18T00:38:48.657Z,-0.80
2019-02-18T00:43:44.516Z,-0.80
2019-02-18T00:48:40.464Z,-0.70
2019-02-18T00:53:36.655Z,-0.70
2019-02-18T00:58:32.592Z,-0.90
2019-02-18T01:03:28.536Z,-1.00
2019-02-18T01:08:24.374Z,-1.10
2019-02-18T01:13:21.131Z,-0.90
2019-02-18T01:18:17.086Z,-0.90
2019-02-18T01:23:12.969Z,-1.00
2019-02-18T01:28:08.915Z,-1.00
2019-02-18T01:33:04.752Z,-0.90
2019-02-18T01:38:00.728Z,-0.90
2019-02-18T01:42:56.558Z,-1.00
2019-02-18T01:47:52.822Z,-0.80
2019-02-18T01:52:48.718Z,-0.80
2019-02-18T01:57:44.674Z,-0.70
2019-02-18T02:02:40.561Z,-0.70
2019-02-18T02:07:36.530Z,-0.70
2019-02-18T02:12:32.737Z,-1.10
2019-02-18T02:17:28.629Z,-1.30
2019-02-18T02:22:24.474Z,-1.50
2019-02-18T02:27:20.412Z,-1.70
2019-02-18T02:32:16.743Z,-1.80
2019-02-18T02:37:12.714Z,-1.70
2019-02-18T02:42:08.891Z,-1.60
2019-02-18T02:47:04.750Z,-1.50
2019-02-18T02:52:00.790Z,-1.50
2019-02-18T02:56:56.997Z,-1.50
2019-02-18T03:01:53.107Z,-1.60
2019-02-18T03:06:49.059Z,-1.80
2019-02-18T03:11:45.215Z,-1.70
2019-02-18T03:16:41.156Z,-1.70
2019-02-18T03:21:37.342Z,-1.80
2019-02-18T03:26:34.594Z,-1.80
2019-02-18T03:31:33.972Z,-1.80
2019-02-18T03:36:29.879Z,-1.80
2019-02-18T03:41:25.805Z,-1.90
2019-02-18T03:46:21.641Z,-2.00
2019-02-18T03:51:17.642Z,-2.00
2019-02-18T03:56:13.625Z,-1.90
2019-02-18T04:01:09.834Z,-1.90
2019-02-18T04:06:05.872Z,-2.00
2019-02-18T04:11:02.187Z,-1.90
2019-02-18T04:15:58.219Z,-1.90
2019-02-18T04:20:57.121Z,-2.00
2019-02-18T04:25:53.173Z,-1.90
2019-02-18T04:30:49.083Z,-1.90
2019-02-18T04:35:45.017Z,-2.10
2019-02-18T04:40:40.907Z,-2.00
2019-02-18T04:45:36.886Z,-1.90
2019-02-18T04:50:32.710Z,-2.20
2019-02-18T04:55:30.600Z,-2.20
2019-02-18T05:00:29.240Z,-2.20
2019-02-18T05:05:30.920Z,-2.00
2019-02-18T05:10:26.540Z,-2.00
2019-02-18T05:15:27.546Z,-2.10
2019-02-18T05:20:30.629Z,-2.20
2019-02-18T05:25:26.532Z,-2.20
2019-02-18T05:30:22.727Z,-2.30
2019-02-18T05:35:22.001Z,-2.40
2019-02-18T05:40:17.949Z,-2.40
2019-02-18T05:45:16.496Z,-2.40
2019-02-18T05:50:12.457Z,-2.50
2019-02-18T05:55:10.093Z,-2.60
2019-02-18T06:00:07.602Z,-2.60
2019-02-18T06:05:03.606Z,-2.60
2019-02-18T06:09:59.551Z,-2.60
2019-02-18T06:14:56.756Z,-2.50
2019-02-18T06:19:52.991Z,-2.40
2019-02-18T06:24:51.029Z,-2.60
2019-02-18T06:29:47.835Z,-2.50
2019-02-18T06:34:43.755Z,-2.40
2019-02-18T06:39:41.646Z,-2.30
2019-02-18T06:44:46.721Z,-2.40
2019-02-18T06:49:42.535Z,-2.30
2019-02-18T06:54:38.467Z,-2.30
2019-02-18T06:59:40.957Z,-2.40
2019-02-18T07:04:55.376Z,-2.50
2019-02-18T07:10:01.748Z,-2.50
2019-02-18T07:14:57.877Z,-2.40
2019-02-18T07:19:53.936Z,-2.20
2019-02-18T07:24:51.398Z,-2.10
2019-02-18T07:29:47.398Z,-1.90
2019-02-18T07:34:43.412Z,-1.80
2019-02-18T07:39:42.596Z,-1.60
2019-02-18T07:44:40.879Z,-1.50
2019-02-18T07:49:39.724Z,-1.30
2019-02-18T07:54:35.647Z,-1.10
2019-02-18T07:59:34.363Z,-0.90
2019-02-18T08:04:33.091Z,-0.70
2019-02-18T08:09:34.723Z,-0.40
2019-02-18T08:14:32.126Z,-0.10
2019-02-18T08:19:28.019Z,0.40
2019-02-18T08:24:23.945Z,0.80
2019-02-18T08:29:27.533Z,1.30
2019-02-18T08:34:23.584Z,1.60
2019-02-18T08:39:19.551Z,1.90
2019-02-18T08:44:15.577Z,2.10
2019-02-18T08:49:11.462Z,2.30
2019-02-18T08:54:07.357Z,2.50
2019-02-18T08:59:04.988Z,2.70
2019-02-18T09:04:01.066Z,2.90
2019-02-18T09:08:58.781Z,3.10
2019-02-18T09:13:54.910Z,3.40
2019-02-18T09:18:50.882Z,3.70
2019-02-18T09:24:10.132Z,3.80
2019-02-18T09:29:08.800Z,4.10
2019-02-18T09:34:04.751Z,4.20
2019-02-18T09:39:01.605Z,4.40
2019-02-18T09:43:57.584Z,4.60
2019-02-18T09:48:53.389Z,4.60
2019-02-18T09:53:49.255Z,4.70
2019-02-18T09:58:45.153Z,4.80
2019-02-18T10:03:43.588Z,4.80
2019-02-18T10:08:41.168Z,5.00
2019-02-18T10:13:36.991Z,5.20
2019-02-18T10:18:32.904Z,5.20
2019-02-18T10:23:30.631Z,5.20
2019-02-18T10:28:26.506Z,5.20
2019-02-18T10:33:22.314Z,5.30
2019-02-18T10:38:19.397Z,5.20
2019-02-18T10:43:15.155Z,5.30
2019-02-18T10:48:10.950Z,5.40
2019-02-18T10:53:07.207Z,5.50
2019-02-18T10:58:03.179Z,5.70
2019-02-18T11:02:58.939Z,5.80
2019-02-18T11:07:54.763Z,5.80
2019-02-18T11:12:50.648Z,6.00
2019-02-18T11:17:46.511Z,5.90
2019-02-18T11:22:42.264Z,5.90
2019-02-18T11:27:38.066Z,5.90
2019-02-18T11:32:34.993Z,5.80
2019-02-18T11:37:30.812Z,5.80
2019-02-18T11:42:26.840Z,5.80
2019-02-18T11:47:22.630Z,5.80
2019-02-18T11:52:18.528Z,5.90
2019-02-18T11:57:14.427Z,5.90
2019-02-18T12:02:10.559Z,5.90
2019-02-18T12:07:06.756Z,6.00
2019-02-18T12:12:02.572Z,6.00
2019-02-18T12:16:58.498Z,6.10
2019-02-18T12:21:54.491Z,6.30
2019-02-18T12:26:50.365Z,6.40
2019-02-18T12:31:46.196Z,6.60
2019-02-18T12:36:42.210Z,6.80
2019-02-18T12:41:47.963Z,7.00
2019-02-18T12:46:35.958Z,7.00
2019-02-18T12:51:31.803Z,7.00
2019-02-18T12:56:27.840Z,7.00
2019-02-18T13:01:23.722Z,7.10
2019-02-18T13:06:19.615Z,7.20
2019-02-18T13:11:17.041Z,7.20
2019-02-18T13:16:12.875Z,7.20
2019-02-18T13:21:09.945Z,7.10
2019-02-18T13:26:05.897Z,6.90
2019-02-18T13:31:01.847Z,6.90
2019-02-18T13:35:58.297Z,6.90
2019-02-18T13:40:54.551Z,7.00
2019-02-18T13:45:50.559Z,7.00
2019-02-18T13:50:46.371Z,7.00
2019-02-18T13:55:42.406Z,7.00
2019-02-18T14:00:38.829Z,6.90
2019-02-18T14:05:40.099Z,6.70
2019-02-18T14:10:35.984Z,6.60
2019-02-18T14:15:32.030Z,6.60
2019-02-18T14:20:27.888Z,6.50
2019-02-18T14:25:24.034Z,6.60
2019-02-18T14:30:20.147Z,6.80
2019-02-18T14:35:17.663Z,6.90
2019-02-18T14:40:15.754Z,7.10
2019-02-18T14:45:12.269Z,7.10
2019-02-18T14:50:08.284Z,7.10
2019-02-18T14:55:04.510Z,7.10
2019-02-18T15:00:03.163Z,7.10
2019-02-18T15:04:59.575Z,7.20
2019-02-18T15:09:58.125Z,7.30
2019-02-18T15:14:54.046Z,7.30
2019-02-18T15:19:50.067Z,7.30
2019-02-18T15:24:45.919Z,7.30
2019-02-18T15:29:42.090Z,7.30
2019-02-18T15:34:38.065Z,7.20
2019-02-18T15:39:33.888Z,7.10
2019-02-18T15:44:29.855Z,7.10
2019-02-18T15:49:25.778Z,7.10
2019-02-18T15:54:21.687Z,7.00
2019-02-18T15:59:17.434Z,7.00
2019-02-18T16:04:13.386Z,6.90
2019-02-18T16:09:10.411Z,6.80
2019-02-18T16:14:06.388Z,6.70
2019-02-18T16:19:02.667Z,6.60
2019-02-18T16:23:58.480Z,6.50
2019-02-18T16:28:54.362Z,6.40
2019-02-18T16:33:50.248Z,6.30
2019-02-18T16:38:46.246Z,6.10
2019-02-18T16:43:42.007Z,5.90
2019-02-18T16:48:38.017Z,5.80
2019-02-18T16:53:34.004Z,5.70
2019-02-18T16:58:29.970Z,5.50
2019-02-18T17:03:25.961Z,5.30
2019-02-18T17:08:22.181Z,5.10
2019-02-18T17:13:18.185Z,5.00
2019-02-18T17:18:14.599Z,4.80
2019-02-18T17:23:12.131Z,4.70
2019-02-18T17:28:08.157Z,4.60
2019-02-18T17:33:11.335Z,4.50
2019-02-18T17:38:07.384Z,4.30
2019-02-18T17:43:03.379Z,4.10
2019-02-18T17:47:59.423Z,3.90
2019-02-18T17:52:55.349Z,3.80
2019-02-18T17:58:31.372Z,3.60
2019-02-18T18:03:40.650Z,3.50
2019-02-18T18:08:36.587Z,3.40
2019-02-18T18:13:49.842Z,3.30
2019-02-18T18:18:48.359Z,3.30
2019-02-18T18:23:45.567Z,3.30
2019-02-18T18:28:41.460Z,3.20
2019-02-18T18:33:37.327Z,3.10
2019-02-18T18:38:33.570Z,3.00
2019-02-18T18:43:34.457Z,2.90
2019-02-18T18:48:30.414Z,2.90
2019-02-18T18:53:28.547Z,3.00
2019-02-18T18:58:24.203Z,2.90
2019-02-18T19:03:20.105Z,2.70
2019-02-18T19:08:15.990Z,2.60
2019-02-18T19:13:14.178Z,2.60
2019-02-18T19:18:14.958Z,2.50
2019-02-18T19:23:11.697Z,2.50
2019-02-18T19:28:07.932Z,2.40
2019-02-18T19:33:04.376Z,2.40
2019-02-18T19:38:02.379Z,2.30
2019-02-18T19:43:00.545Z,2.20
2019-02-18T19:47:56.497Z,2.30
2019-02-18T19:52:55.957Z,2.20
2019-02-18T19:57:51.871Z,2.10
2019-02-18T20:02:47.794Z,2.00
2019-02-18T20:07:54.976Z,1.90
2019-02-18T20:12:50.945Z,1.90
2019-02-18T20:17:47.002Z,1.90
2019-02-18T20:22:43.600Z,1.70
2019-02-18T20:27:41.084Z,1.60
2019-02-18T20:32:39.317Z,1.50
2019-02-18T20:37:41.645Z,1.40
2019-02-18T20:42:50.088Z,1.30
2019-02-18T20:48:17.495Z,1.30
2019-02-18T20:53:26.038Z,1.30
2019-02-18T20:58:28.075Z,1.20
2019-02-18T21:03:31.713Z,1.20
2019-02-18T21:08:50.791Z,1.30
2019-02-18T21:14:00.106Z,1.30
2019-02-18T21:18:58.367Z,1.40
2019-02-18T21:23:56.250Z,1.40
2019-02-18T21:29:04.665Z,1.30
2019-02-18T21:34:09.329Z,1.20
2019-02-18T21:39:10.424Z,1.00
2019-02-18T21:44:09.648Z,1.10
2019-02-18T21:49:12.870Z,1.10
2019-02-18T21:54:09.750Z,1.00
2019-02-18T21:59:05.709Z,1.10
2019-02-18T22:04:01.793Z,1.00
2019-02-18T22:09:00.487Z,1.00
2019-02-18T22:14:01.486Z,0.80
2019-02-18T22:18:59.838Z,0.70
2019-02-18T22:23:55.885Z,0.60
2019-02-18T22:28:53.797Z,0.60
2019-02-18T22:33:51.223Z,0.50
2019-02-18T22:38:49.209Z,0.40
2019-02-18T22:43:46.546Z,0.40
2019-02-18T22:48:42.438Z,0.40
2019-02-18T22:53:38.477Z,0.40
2019-02-18T22:58:35.576Z,0.40
2019-02-18T23:03:34.905Z,0.40
2019-02-18T23:08:30.715Z,0.30
2019-02-18T23:13:46.255Z,0.30
2019-02-18T23:18:43.415Z,0.30
2019-02-18T23:23:39.217Z,0.20
2019-02-18T23:28:35.021Z,0.20
2019-02-18T23:33:31.002Z,0.10
2019-02-18T23:38:26.890Z,0.20
2019-02-18T23:43:22.942Z,0.20
2019-02-18T23:48:19.152Z,0.10
2019-02-18T23:53:23.005Z,0.00
2019-02-18T23:58:24.869Z,0.00
